sensor_id;sensor_type;location;lat;lon;timestamp;P1;durP1;ratioP1;P2;durP2;ratioP2
32146;SDS011;32190;49.112;8.598;2023-05-25T00:01:34;2.83;;;0.93;;
32146;SDS011;32190;49.112;8.598;2023-05-25T00:07:25;0.70;;;0.70;;
32146;SDS011;32190;49.112;8.598;2023-05-25T00:13:15;0.90;;;0.60;;
32146;SDS011;32190;49.112;8.598;2023-05-25T00:19:06;1.10;;;0.70;;
32146;SDS011;32190;49.112;8.598;2023-05-25T00:24:59;2.22;;;0.82;;
32146;SDS011;32190;49.112;8.598;2023-05-25T00:30:50;1.88;;;0.90;;
32146;SDS011;32190;49.112;8.598;2023-05-25T00:36:40;0.70;;;0.70;;
32146;SDS011;32190;49.112;8.598;2023-05-25T00:42:32;0.70;;;0.70;;
32146;SDS011;32190;49.112;8.598;2023-05-25T00:48:24;1.25;;;0.88;;
32146;SDS011;32190;49.112;8.598;2023-05-25T00:54:15;1.70;;;0.80;;
32146;SDS011;32190;49.112;8.598;2023-05-25T01:00:07;0.82;;;0.82;;
32146;SDS011;32190;49.112;8.598;2023-05-25T01:06:02;1.13;;;0.93;;
32146;SDS011;32190;49.112;8.598;2023-05-25T01:11:56;1.10;;;0.90;;
32146;SDS011;32190;49.112;8.598;2023-05-25T01:17:49;1.20;;;0.70;;
32146;SDS011;32190;49.112;8.598;2023-05-25T01:23:46;2.47;;;1.40;;
32146;SDS011;32190;49.112;8.598;2023-05-25T01:29:44;2.13;;;0.95;;
32146;SDS011;32190;49.112;8.598;2023-05-25T01:35:35;1.30;;;0.57;;
32146;SDS011;32190;49.112;8.598;2023-05-25T01:41:27;1.05;;;0.73;;
32146;SDS011;32190;49.112;8.598;2023-05-25T01:47:39;0.75;;;0.70;;
32146;SDS011;32190;49.112;8.598;2023-05-25T01:53:52;0.55;;;0.55;;
32146;SDS011;32190;49.112;8.598;2023-05-25T01:59:47;2.50;;;1.15;;
32146;SDS011;32190;49.112;8.598;2023-05-25T02:05:40;0.60;;;0.60;;
32146;SDS011;32190;49.112;8.598;2023-05-25T02:11:31;2.65;;;0.60;;
32146;SDS011;32190;49.112;8.598;2023-05-25T02:17:21;0.85;;;0.80;;
32146;SDS011;32190;49.112;8.598;2023-05-25T02:23:16;0.75;;;0.63;;
32146;SDS011;32190;49.112;8.598;2023-05-25T02:29:07;1.65;;;0.68;;
32146;SDS011;32190;49.112;8.598;2023-05-25T02:34:58;0.70;;;0.65;;
32146;SDS011;32190;49.112;8.598;2023-05-25T02:40:48;0.60;;;0.60;;
32146;SDS011;32190;49.112;8.598;2023-05-25T02:46:39;1.35;;;0.50;;
32146;SDS011;32190;49.112;8.598;2023-05-25T02:52:30;0.68;;;0.52;;
32146;SDS011;32190;49.112;8.598;2023-05-25T02:58:21;1.08;;;0.82;;
32146;SDS011;32190;49.112;8.598;2023-05-25T03:04:12;0.80;;;0.80;;
32146;SDS011;32190;49.112;8.598;2023-05-25T03:10:02;1.80;;;1.15;;
32146;SDS011;32190;49.112;8.598;2023-05-25T03:15:53;0.60;;;0.55;;
32146;SDS011;32190;49.112;8.598;2023-05-25T03:21:44;3.97;;;0.77;;
32146;SDS011;32190;49.112;8.598;2023-05-25T03:27:34;1.15;;;0.63;;
32146;SDS011;32190;49.112;8.598;2023-05-25T03:33:25;2.25;;;0.80;;
32146;SDS011;32190;49.112;8.598;2023-05-25T03:39:15;0.68;;;0.60;;
32146;SDS011;32190;49.112;8.598;2023-05-25T03:45:06;1.45;;;0.52;;
32146;SDS011;32190;49.112;8.598;2023-05-25T03:50:58;1.13;;;0.63;;
32146;SDS011;32190;49.112;8.598;2023-05-25T03:56:48;0.52;;;0.50;;
32146;SDS011;32190;49.112;8.598;2023-05-25T04:02:39;1.30;;;0.80;;
32146;SDS011;32190;49.112;8.598;2023-05-25T04:08:30;2.50;;;1.13;;
32146;SDS011;32190;49.112;8.598;2023-05-25T04:14:20;2.10;;;1.00;;
32146;SDS011;32190;49.112;8.598;2023-05-25T04:20:11;1.65;;;0.80;;
32146;SDS011;32190;49.112;8.598;2023-05-25T04:26:01;3.03;;;1.02;;
32146;SDS011;32190;49.112;8.598;2023-05-25T04:31:52;1.85;;;0.95;;
32146;SDS011;32190;49.112;8.598;2023-05-25T04:37:43;2.10;;;1.05;;
32146;SDS011;32190;49.112;8.598;2023-05-25T04:43:36;1.58;;;0.88;;
32146;SDS011;32190;49.112;8.598;2023-05-25T04:49:26;1.17;;;0.85;;
32146;SDS011;32190;49.112;8.598;2023-05-25T04:55:17;1.70;;;0.73;;
32146;SDS011;32190;49.112;8.598;2023-05-25T05:01:07;3.45;;;1.30;;
32146;SDS011;32190;49.112;8.598;2023-05-25T05:06:58;1.98;;;1.17;;
32146;SDS011;32190;49.112;8.598;2023-05-25T05:12:49;1.35;;;0.93;;
32146;SDS011;32190;49.112;8.598;2023-05-25T05:18:40;1.58;;;1.20;;
32146;SDS011;32190;49.112;8.598;2023-05-25T05:24:30;3.42;;;1.20;;
32146;SDS011;32190;49.112;8.598;2023-05-25T05:30:21;0.90;;;0.85;;
32146;SDS011;32190;49.112;8.598;2023-05-25T05:36:12;2.55;;;1.30;;
32146;SDS011;32190;49.112;8.598;2023-05-25T05:42:02;1.90;;;1.00;;
32146;SDS011;32190;49.112;8.598;2023-05-25T05:47:53;3.60;;;1.23;;
32146;SDS011;32190;49.112;8.598;2023-05-25T05:53:44;2.03;;;1.30;;
32146;SDS011;32190;49.112;8.598;2023-05-25T05:59:34;1.55;;;1.00;;
32146;SDS011;32190;49.112;8.598;2023-05-25T06:05:25;1.00;;;0.93;;
32146;SDS011;32190;49.112;8.598;2023-05-25T06:11:15;1.33;;;0.90;;
32146;SDS011;32190;49.112;8.598;2023-05-25T06:17:06;2.42;;;1.35;;
32146;SDS011;32190;49.112;8.598;2023-05-25T06:22:56;1.30;;;0.88;;
32146;SDS011;32190;49.112;8.598;2023-05-25T06:28:47;1.10;;;0.98;;
32146;SDS011;32190;49.112;8.598;2023-05-25T06:34:39;2.47;;;0.95;;
32146;SDS011;32190;49.112;8.598;2023-05-25T06:40:29;1.30;;;0.98;;
32146;SDS011;32190;49.112;8.598;2023-05-25T06:46:20;1.20;;;0.90;;
32146;SDS011;32190;49.112;8.598;2023-05-25T06:52:10;1.90;;;0.98;;
32146;SDS011;32190;49.112;8.598;2023-05-25T06:58:01;3.25;;;1.13;;
32146;SDS011;32190;49.112;8.598;2023-05-25T07:03:51;3.78;;;1.75;;
32146;SDS011;32190;49.112;8.598;2023-05-25T07:09:42;2.00;;;1.10;;
32146;SDS011;32190;49.112;8.598;2023-05-25T07:15:32;3.88;;;1.50;;
32146;SDS011;32190;49.112;8.598;2023-05-25T07:21:23;3.30;;;1.75;;
32146;SDS011;32190;49.112;8.598;2023-05-25T07:27:14;3.08;;;1.50;;
32146;SDS011;32190;49.112;8.598;2023-05-25T07:33:05;3.20;;;1.45;;
32146;SDS011;32190;49.112;8.598;2023-05-25T07:38:56;3.17;;;1.55;;
32146;SDS011;32190;49.112;8.598;2023-05-25T07:44:47;3.10;;;1.88;;
32146;SDS011;32190;49.112;8.598;2023-05-25T07:50:38;1.90;;;1.00;;
32146;SDS011;32190;49.112;8.598;2023-05-25T07:56:28;2.92;;;1.30;;
32146;SDS011;32190;49.112;8.598;2023-05-25T08:02:19;4.95;;;1.60;;
32146;SDS011;32190;49.112;8.598;2023-05-25T08:08:09;4.35;;;1.25;;
32146;SDS011;32190;49.112;8.598;2023-05-25T08:14:00;2.60;;;1.10;;
32146;SDS011;32190;49.112;8.598;2023-05-25T08:19:51;2.35;;;1.25;;
32146;SDS011;32190;49.112;8.598;2023-05-25T08:25:42;2.85;;;1.35;;
32146;SDS011;32190;49.112;8.598;2023-05-25T08:31:33;2.75;;;1.27;;
32146;SDS011;32190;49.112;8.598;2023-05-25T08:37:24;1.83;;;1.15;;
32146;SDS011;32190;49.112;8.598;2023-05-25T08:43:15;1.95;;;1.65;;
32146;SDS011;32190;49.112;8.598;2023-05-25T08:49:09;4.30;;;1.60;;
32146;SDS011;32190;49.112;8.598;2023-05-25T08:55:05;1.20;;;1.10;;
32146;SDS011;32190;49.112;8.598;2023-05-25T09:01:01;2.00;;;1.60;;
32146;SDS011;32190;49.112;8.598;2023-05-25T09:06:55;2.72;;;1.73;;
32146;SDS011;32190;49.112;8.598;2023-05-25T09:12:47;2.35;;;1.67;;
32146;SDS011;32190;49.112;8.598;2023-05-25T09:18:40;1.77;;;1.17;;
32146;SDS011;32190;49.112;8.598;2023-05-25T09:24:30;2.45;;;1.20;;
32146;SDS011;32190;49.112;8.598;2023-05-25T09:30:22;2.22;;;1.33;;
32146;SDS011;32190;49.112;8.598;2023-05-25T09:36:13;7.10;;;2.50;;
32146;SDS011;32190;49.112;8.598;2023-05-25T09:42:05;2.70;;;1.48;;
32146;SDS011;32190;49.112;8.598;2023-05-25T09:47:56;3.42;;;1.75;;
32146;SDS011;32190;49.112;8.598;2023-05-25T09:53:48;2.20;;;1.55;;
32146;SDS011;32190;49.112;8.598;2023-05-25T09:59:38;2.05;;;1.55;;
32146;SDS011;32190;49.112;8.598;2023-05-25T10:05:29;2.22;;;1.52;;
32146;SDS011;32190;49.112;8.598;2023-05-25T10:11:20;2.17;;;1.40;;
32146;SDS011;32190;49.112;8.598;2023-05-25T10:17:11;2.50;;;1.60;;
32146;SDS011;32190;49.112;8.598;2023-05-25T10:23:09;2.08;;;1.42;;
32146;SDS011;32190;49.112;8.598;2023-05-25T10:29:02;2.20;;;1.57;;
32146;SDS011;32190;49.112;8.598;2023-05-25T10:34:53;2.78;;;1.80;;
32146;SDS011;32190;49.112;8.598;2023-05-25T10:40:46;4.78;;;1.95;;
32146;SDS011;32190;49.112;8.598;2023-05-25T10:46:39;2.38;;;1.33;;
32146;SDS011;32190;49.112;8.598;2023-05-25T10:52:30;1.48;;;1.33;;
32146;SDS011;32190;49.112;8.598;2023-05-25T10:58:22;3.28;;;1.75;;
32146;SDS011;32190;49.112;8.598;2023-05-25T11:04:15;2.75;;;1.55;;
32146;SDS011;32190;49.112;8.598;2023-05-25T11:10:06;1.95;;;1.50;;
32146;SDS011;32190;49.112;8.598;2023-05-25T11:16:06;1.80;;;1.50;;
32146;SDS011;32190;49.112;8.598;2023-05-25T11:22:17;2.10;;;1.50;;
32146;SDS011;32190;49.112;8.598;2023-05-25T11:28:10;2.50;;;1.70;;
32146;SDS011;32190;49.112;8.598;2023-05-25T11:34:02;3.97;;;2.20;;
32146;SDS011;32190;49.112;8.598;2023-05-25T11:39:56;2.67;;;1.90;;
32146;SDS011;32190;49.112;8.598;2023-05-25T11:45:56;3.15;;;2.05;;
32146;SDS011;32190;49.112;8.598;2023-05-25T11:51:52;1.67;;;1.58;;
32146;SDS011;32190;49.112;8.598;2023-05-25T11:57:45;2.17;;;1.75;;
32146;SDS011;32190;49.112;8.598;2023-05-25T12:03:35;2.15;;;1.42;;
32146;SDS011;32190;49.112;8.598;2023-05-25T12:09:26;2.15;;;1.83;;
32146;SDS011;32190;49.112;8.598;2023-05-25T12:15:19;2.72;;;1.85;;
32146;SDS011;32190;49.112;8.598;2023-05-25T12:21:11;1.55;;;1.42;;
32146;SDS011;32190;49.112;8.598;2023-05-25T12:27:01;2.20;;;1.60;;
32146;SDS011;32190;49.112;8.598;2023-05-25T12:33:00;1.52;;;1.40;;
32146;SDS011;32190;49.112;8.598;2023-05-25T12:38:57;1.60;;;1.50;;
32146;SDS011;32190;49.112;8.598;2023-05-25T12:44:53;4.28;;;1.80;;
32146;SDS011;32190;49.112;8.598;2023-05-25T12:50:57;2.05;;;1.45;;
32146;SDS011;32190;49.112;8.598;2023-05-25T12:56:54;2.22;;;1.88;;
32146;SDS011;32190;49.112;8.598;2023-05-25T13:02:46;2.13;;;1.50;;
32146;SDS011;32190;49.112;8.598;2023-05-25T13:08:36;1.42;;;1.33;;
32146;SDS011;32190;49.112;8.598;2023-05-25T13:14:28;1.80;;;1.23;;
32146;SDS011;32190;49.112;8.598;2023-05-25T13:20:20;1.52;;;1.42;;
32146;SDS011;32190;49.112;8.598;2023-05-25T13:26:12;2.65;;;1.60;;
32146;SDS011;32190;49.112;8.598;2023-05-25T13:32:02;1.33;;;1.23;;
32146;SDS011;32190;49.112;8.598;2023-05-25T13:37:53;2.45;;;1.10;;
32146;SDS011;32190;49.112;8.598;2023-05-25T13:43:43;1.60;;;1.50;;
32146;SDS011;32190;49.112;8.598;2023-05-25T13:49:34;1.05;;;1.00;;
32146;SDS011;32190;49.112;8.598;2023-05-25T13:55:24;3.13;;;1.42;;
32146;SDS011;32190;49.112;8.598;2023-05-25T14:01:15;2.85;;;1.73;;
32146;SDS011;32190;49.112;8.598;2023-05-25T14:07:07;4.43;;;1.10;;
32146;SDS011;32190;49.112;8.598;2023-05-25T14:12:57;2.50;;;1.02;;
32146;SDS011;32190;49.112;8.598;2023-05-25T14:18:48;3.20;;;1.60;;
32146;SDS011;32190;49.112;8.598;2023-05-25T14:24:39;1.45;;;1.13;;
32146;SDS011;32190;49.112;8.598;2023-05-25T14:30:30;1.42;;;1.33;;
32146;SDS011;32190;49.112;8.598;2023-05-25T14:36:20;1.20;;;1.10;;
32146;SDS011;32190;49.112;8.598;2023-05-25T14:42:11;2.53;;;1.35;;
32146;SDS011;32190;49.112;8.598;2023-05-25T14:48:01;0.88;;;0.82;;
32146;SDS011;32190;49.112;8.598;2023-05-25T14:53:52;1.88;;;1.20;;
32146;SDS011;32190;49.112;8.598;2023-05-25T14:59:43;1.33;;;1.23;;
32146;SDS011;32190;49.112;8.598;2023-05-25T15:05:33;1.48;;;1.20;;
32146;SDS011;32190;49.112;8.598;2023-05-25T15:11:24;1.13;;;1.02;;
32146;SDS011;32190;49.112;8.598;2023-05-25T15:17:15;1.40;;;1.30;;
32146;SDS011;32190;49.112;8.598;2023-05-25T15:23:06;1.38;;;1.20;;
32146;SDS011;32190;49.112;8.598;2023-05-25T15:28:57;1.27;;;1.17;;
32146;SDS011;32190;49.112;8.598;2023-05-25T15:34:47;1.95;;;1.45;;
32146;SDS011;32190;49.112;8.598;2023-05-25T15:40:38;1.45;;;1.30;;
32146;SDS011;32190;49.112;8.598;2023-05-25T15:46:28;1.15;;;1.05;;
32146;SDS011;32190;49.112;8.598;2023-05-25T15:52:19;1.48;;;1.15;;
32146;SDS011;32190;49.112;8.598;2023-05-25T15:58:09;1.13;;;0.90;;
32146;SDS011;32190;49.112;8.598;2023-05-25T16:04:00;1.15;;;1.00;;
32146;SDS011;32190;49.112;8.598;2023-05-25T16:09:51;1.75;;;1.10;;
32146;SDS011;32190;49.112;8.598;2023-05-25T16:15:42;0.95;;;0.95;;
32146;SDS011;32190;49.112;8.598;2023-05-25T16:21:32;1.30;;;1.20;;
32146;SDS011;32190;49.112;8.598;2023-05-25T16:27:23;1.20;;;1.15;;
32146;SDS011;32190;49.112;8.598;2023-05-25T16:33:14;1.70;;;1.20;;
32146;SDS011;32190;49.112;8.598;2023-05-25T16:39:04;1.08;;;0.88;;
32146;SDS011;32190;49.112;8.598;2023-05-25T16:44:55;1.45;;;1.17;;
32146;SDS011;32190;49.112;8.598;2023-05-25T16:50:45;1.30;;;1.17;;
32146;SDS011;32190;49.112;8.598;2023-05-25T16:56:36;0.90;;;0.88;;
32146;SDS011;32190;49.112;8.598;2023-05-25T17:02:27;0.93;;;0.90;;
32146;SDS011;32190;49.112;8.598;2023-05-25T17:08:17;1.10;;;1.00;;
32146;SDS011;32190;49.112;8.598;2023-05-25T17:14:08;1.15;;;0.80;;
32146;SDS011;32190;49.112;8.598;2023-05-25T17:19:58;1.02;;;0.93;;
32146;SDS011;32190;49.112;8.598;2023-05-25T17:25:49;1.33;;;1.20;;
32146;SDS011;32190;49.112;8.598;2023-05-25T17:31:39;0.77;;;0.77;;
32146;SDS011;32190;49.112;8.598;2023-05-25T17:37:31;1.20;;;1.02;;
32146;SDS011;32190;49.112;8.598;2023-05-25T17:43:22;0.90;;;0.90;;
32146;SDS011;32190;49.112;8.598;2023-05-25T17:49:13;0.90;;;0.90;;
32146;SDS011;32190;49.112;8.598;2023-05-25T17:55:04;1.25;;;1.05;;
32146;SDS011;32190;49.112;8.598;2023-05-25T18:00:55;2.47;;;1.00;;
32146;SDS011;32190;49.112;8.598;2023-05-25T18:06:46;0.98;;;0.85;;
32146;SDS011;32190;49.112;8.598;2023-05-25T18:12:41;0.98;;;0.80;;
32146;SDS011;32190;49.112;8.598;2023-05-25T18:18:33;0.73;;;0.73;;
32146;SDS011;32190;49.112;8.598;2023-05-25T18:24:24;0.82;;;0.82;;
32146;SDS011;32190;49.112;8.598;2023-05-25T18:30:14;1.48;;;0.93;;
32146;SDS011;32190;49.112;8.598;2023-05-25T18:36:05;1.00;;;0.85;;
32146;SDS011;32190;49.112;8.598;2023-05-25T18:41:56;1.67;;;0.98;;
32146;SDS011;32190;49.112;8.598;2023-05-25T18:47:46;0.70;;;0.70;;
32146;SDS011;32190;49.112;8.598;2023-05-25T18:53:37;1.10;;;0.85;;
32146;SDS011;32190;49.112;8.598;2023-05-25T18:59:28;0.77;;;0.77;;
32146;SDS011;32190;49.112;8.598;2023-05-25T19:05:20;1.20;;;1.10;;
32146;SDS011;32190;49.112;8.598;2023-05-25T19:11:11;0.70;;;0.70;;
32146;SDS011;32190;49.112;8.598;2023-05-25T19:17:03;1.15;;;0.90;;
32146;SDS011;32190;49.112;8.598;2023-05-25T19:22:54;0.95;;;0.88;;
32146;SDS011;32190;49.112;8.598;2023-05-25T19:28:44;2.65;;;1.20;;
32146;SDS011;32190;49.112;8.598;2023-05-25T19:34:35;0.70;;;0.70;;
32146;SDS011;32190;49.112;8.598;2023-05-25T19:40:25;1.02;;;0.88;;
32146;SDS011;32190;49.112;8.598;2023-05-25T19:46:16;1.25;;;1.15;;
32146;SDS011;32190;49.112;8.598;2023-05-25T19:52:07;1.33;;;1.00;;
32146;SDS011;32190;49.112;8.598;2023-05-25T19:57:58;0.98;;;0.88;;
32146;SDS011;32190;49.112;8.598;2023-05-25T20:03:48;0.85;;;0.85;;
32146;SDS011;32190;49.112;8.598;2023-05-25T20:09:39;0.95;;;0.90;;
32146;SDS011;32190;49.112;8.598;2023-05-25T20:15:30;1.00;;;0.90;;
32146;SDS011;32190;49.112;8.598;2023-05-25T20:21:21;0.88;;;0.88;;
32146;SDS011;32190;49.112;8.598;2023-05-25T20:27:11;0.80;;;0.80;;
32146;SDS011;32190;49.112;8.598;2023-05-25T20:33:02;1.38;;;1.00;;
32146;SDS011;32190;49.112;8.598;2023-05-25T20:38:53;1.00;;;1.00;;
32146;SDS011;32190;49.112;8.598;2023-05-25T20:44:43;0.80;;;0.80;;
32146;SDS011;32190;49.112;8.598;2023-05-25T20:50:34;1.25;;;1.15;;
32146;SDS011;32190;49.112;8.598;2023-05-25T20:56:24;1.08;;;0.85;;
32146;SDS011;32190;49.112;8.598;2023-05-25T21:02:18;1.08;;;1.05;;
32146;SDS011;32190;49.112;8.598;2023-05-25T21:08:08;1.00;;;0.90;;
32146;SDS011;32190;49.112;8.598;2023-05-25T21:14:00;1.13;;;1.13;;
32146;SDS011;32190;49.112;8.598;2023-05-25T21:19:51;2.35;;;1.73;;
32146;SDS011;32190;49.112;8.598;2023-05-25T21:25:41;1.40;;;1.30;;
32146;SDS011;32190;49.112;8.598;2023-05-25T21:31:32;1.20;;;1.13;;
32146;SDS011;32190;49.112;8.598;2023-05-25T21:37:25;1.83;;;1.35;;
32146;SDS011;32190;49.112;8.598;2023-05-25T21:43:17;1.00;;;0.98;;
32146;SDS011;32190;49.112;8.598;2023-05-25T21:49:07;1.27;;;1.17;;
32146;SDS011;32190;49.112;8.598;2023-05-25T21:54:58;1.40;;;1.30;;
32146;SDS011;32190;49.112;8.598;2023-05-25T22:00:48;1.70;;;1.60;;
32146;SDS011;32190;49.112;8.598;2023-05-25T22:06:39;1.60;;;1.25;;
32146;SDS011;32190;49.112;8.598;2023-05-25T22:12:29;1.73;;;1.30;;
32146;SDS011;32190;49.112;8.598;2023-05-25T22:18:20;1.60;;;1.48;;
32146;SDS011;32190;49.112;8.598;2023-05-25T22:24:10;2.22;;;2.00;;
32146;SDS011;32190;49.112;8.598;2023-05-25T22:30:01;2.15;;;1.35;;
32146;SDS011;32190;49.112;8.598;2023-05-25T22:35:52;1.98;;;1.55;;
32146;SDS011;32190;49.112;8.598;2023-05-25T22:41:43;1.92;;;1.27;;
32146;SDS011;32190;49.112;8.598;2023-05-25T22:47:34;1.30;;;1.20;;
32146;SDS011;32190;49.112;8.598;2023-05-25T22:53:24;1.50;;;1.40;;
32146;SDS011;32190;49.112;8.598;2023-05-25T22:59:15;1.38;;;1.27;;
32146;SDS011;32190;49.112;8.598;2023-05-25T23:05:05;1.30;;;1.20;;
32146;SDS011;32190;49.112;8.598;2023-05-25T23:10:57;1.35;;;1.27;;
32146;SDS011;32190;49.112;8.598;2023-05-25T23:16:48;1.50;;;1.40;;
32146;SDS011;32190;49.112;8.598;2023-05-25T23:22:39;1.63;;;1.15;;
32146;SDS011;32190;49.112;8.598;2023-05-25T23:28:31;2.13;;;1.30;;
32146;SDS011;32190;49.112;8.598;2023-05-25T23:34:22;1.77;;;1.25;;
32146;SDS011;32190;49.112;8.598;2023-05-25T23:40:12;1.45;;;1.35;;
32146;SDS011;32190;49.112;8.598;2023-05-25T23:46:03;1.55;;;1.45;;
32146;SDS011;32190;49.112;8.598;2023-05-25T23:51:53;1.35;;;1.23;;
32146;SDS011;32190;49.112;8.598;2023-05-25T23:57:44;1.13;;;1.02;;
